sensor_id;sensor_type;location;lat;lon;timestamp;pressure;altitude;pressure_sealevel;temperature;humidity
1926;BME280;964;42.606;23.588;2023-05-14T00:01:24;94970.50;;;30.22;24.98
1926;BME280;964;42.606;23.588;2023-05-14T00:03:50;94983.63;;;27.98;26.92
1926;BME280;964;42.606;23.588;2023-05-14T00:06:17;94976.91;;;28.84;25.89
1926;BME280;964;42.606;23.588;2023-05-14T00:08:44;94975.53;;;28.80;26.00
1926;BME280;964;42.606;23.588;2023-05-14T00:11:11;94959.63;;;29.47;25.34
1926;BME280;964;42.606;23.588;2023-05-14T00:13:38;94967.94;;;28.56;26.24
1926;BME280;964;42.606;23.588;2023-05-14T00:16:05;94957.34;;;28.67;26.39
1926;BME280;964;42.606;23.588;2023-05-14T00:18:33;94959.69;;;29.29;25.58
1926;BME280;964;42.606;23.588;2023-05-14T00:21:00;94956.84;;;28.96;25.84
1926;BME280;964;42.606;23.588;2023-05-14T00:23:27;94961.81;;;29.25;25.54
1926;BME280;964;42.606;23.588;2023-05-14T00:25:54;94953.63;;;30.47;24.49
1926;BME280;964;42.606;23.588;2023-05-14T00:28:21;94957.47;;;29.51;25.26
1926;BME280;964;42.606;23.588;2023-05-14T00:30:48;94954.91;;;28.88;25.40
1926;BME280;964;42.606;23.588;2023-05-14T00:33:15;94951.19;;;29.36;25.07
1926;BME280;964;42.606;23.588;2023-05-14T00:35:43;94944.56;;;29.01;25.30
1926;BME280;964;42.606;23.588;2023-05-14T00:38:10;94945.25;;;29.38;24.81
1926;BME280;964;42.606;23.588;2023-05-14T00:40:42;94954.31;;;28.47;25.62
1926;BME280;964;42.606;23.588;2023-05-14T00:43:10;94940.38;;;28.27;25.79
1926;BME280;964;42.606;23.588;2023-05-14T00:45:37;94934.63;;;28.34;25.38
1926;BME280;964;42.606;23.588;2023-05-14T00:48:04;94933.72;;;28.37;25.23
1926;BME280;964;42.606;23.588;2023-05-14T00:50:31;94926.28;;;28.92;25.14
1926;BME280;964;42.606;23.588;2023-05-14T00:53:00;94925.81;;;28.85;25.11
1926;BME280;964;42.606;23.588;2023-05-14T00:55:29;94925.69;;;29.39;24.69
1926;BME280;964;42.606;23.588;2023-05-14T00:57:57;94928.88;;;28.59;25.06
1926;BME280;964;42.606;23.588;2023-05-14T01:00:25;94928.84;;;28.96;24.86
1926;BME280;964;42.606;23.588;2023-05-14T01:02:51;94932.78;;;28.95;24.93
1926;BME280;964;42.606;23.588;2023-05-14T01:05:18;94930.69;;;28.81;25.29
1926;BME280;964;42.606;23.588;2023-05-14T01:08:02;94933.88;;;28.15;25.52
1926;BME280;964;42.606;23.588;2023-05-14T01:10:39;94924.13;;;28.05;25.97
1926;BME280;964;42.606;23.588;2023-05-14T01:13:12;94923.66;;;27.80;26.24
1926;BME280;964;42.606;23.588;2023-05-14T01:15:44;94939.41;;;26.70;26.92
1926;BME280;964;42.606;23.588;2023-05-14T01:18:14;94925.03;;;28.02;25.69
1926;BME280;964;42.606;23.588;2023-05-14T01:20:43;94919.78;;;28.35;25.61
1926;BME280;964;42.606;23.588;2023-05-14T01:23:11;94918.97;;;27.89;26.28
1926;BME280;964;42.606;23.588;2023-05-14T01:25:38;94902.50;;;28.38;25.47
1926;BME280;964;42.606;23.588;2023-05-14T01:28:10;94911.31;;;28.33;25.62
1926;BME280;964;42.606;23.588;2023-05-14T01:30:42;94926.38;;;29.07;25.09
1926;BME280;964;42.606;23.588;2023-05-14T01:33:13;94929.50;;;29.65;24.36
1926;BME280;964;42.606;23.588;2023-05-14T01:35:42;94941.00;;;28.67;25.32
1926;BME280;964;42.606;23.588;2023-05-14T01:38:13;94942.94;;;28.40;25.45
1926;BME280;964;42.606;23.588;2023-05-14T01:40:40;94946.13;;;28.38;25.15
1926;BME280;964;42.606;23.588;2023-05-14T01:43:07;94947.19;;;28.22;25.64
1926;BME280;964;42.606;23.588;2023-05-14T01:45:34;94945.56;;;28.70;25.08
1926;BME280;964;42.606;23.588;2023-05-14T01:48:02;94943.25;;;28.87;25.44
1926;BME280;964;42.606;23.588;2023-05-14T01:50:29;94941.88;;;28.83;24.81
1926;BME280;964;42.606;23.588;2023-05-14T01:52:56;94953.72;;;28.80;25.21
1926;BME280;964;42.606;23.588;2023-05-14T01:55:24;94962.41;;;29.29;25.11
1926;BME280;964;42.606;23.588;2023-05-14T01:57:52;94956.00;;;30.07;24.16
1926;BME280;964;42.606;23.588;2023-05-14T02:00:19;94957.31;;;29.55;24.55
1926;BME280;964;42.606;23.588;2023-05-14T02:02:46;94957.47;;;29.00;25.29
1926;BME280;964;42.606;23.588;2023-05-14T02:05:13;94961.13;;;29.57;24.65
1926;BME280;964;42.606;23.588;2023-05-14T02:07:39;94953.28;;;30.07;24.49
1926;BME280;964;42.606;23.588;2023-05-14T02:10:07;94976.31;;;27.86;26.85
1926;BME280;964;42.606;23.588;2023-05-14T02:12:36;94964.75;;;28.94;25.32
1926;BME280;964;42.606;23.588;2023-05-14T02:15:04;94963.53;;;29.55;24.76
1926;BME280;964;42.606;23.588;2023-05-14T02:17:31;94962.81;;;28.67;25.39
1926;BME280;964;42.606;23.588;2023-05-14T02:19:57;94965.75;;;29.24;25.00
1926;BME280;964;42.606;23.588;2023-05-14T02:22:24;94969.47;;;28.30;25.65
1926;BME280;964;42.606;23.588;2023-05-14T02:24:51;94962.16;;;29.09;25.66
1926;BME280;964;42.606;23.588;2023-05-14T02:27:18;94974.88;;;27.63;27.67
1926;BME280;964;42.606;23.588;2023-05-14T02:29:47;94972.19;;;28.48;26.93
1926;BME280;964;42.606;23.588;2023-05-14T02:32:14;94961.78;;;27.80;27.89
1926;BME280;964;42.606;23.588;2023-05-14T02:34:40;94964.75;;;27.63;27.76
1926;BME280;964;42.606;23.588;2023-05-14T02:37:07;94958.25;;;28.64;27.79
1926;BME280;964;42.606;23.588;2023-05-14T02:39:34;94970.94;;;26.80;28.65
1926;BME280;964;42.606;23.588;2023-05-14T02:42:01;94973.44;;;26.53;29.01
1926;BME280;964;42.606;23.588;2023-05-14T02:44:28;94959.88;;;27.27;27.82
1926;BME280;964;42.606;23.588;2023-05-14T02:46:57;94970.38;;;26.29;28.78
1926;BME280;964;42.606;23.588;2023-05-14T02:49:24;94975.09;;;26.72;29.09
1926;BME280;964;42.606;23.588;2023-05-14T02:51:51;94975.69;;;28.76;26.74
1926;BME280;964;42.606;23.588;2023-05-14T02:54:18;94984.53;;;28.04;27.70
1926;BME280;964;42.606;23.588;2023-05-14T02:56:45;94984.31;;;28.47;27.02
1926;BME280;964;42.606;23.588;2023-05-14T02:59:12;94986.44;;;28.80;26.63
1926;BME280;964;42.606;23.588;2023-05-14T03:01:39;94991.78;;;28.07;27.26
1926;BME280;964;42.606;23.588;2023-05-14T03:04:07;94990.34;;;28.24;27.24
1926;BME280;964;42.606;23.588;2023-05-14T03:06:34;94988.13;;;27.52;27.65
1926;BME280;964;42.606;23.588;2023-05-14T03:09:01;94990.53;;;26.75;29.03
1926;BME280;964;42.606;23.588;2023-05-14T03:11:28;94982.72;;;26.99;28.61
1926;BME280;964;42.606;23.588;2023-05-14T03:13:55;95000.00;;;26.71;28.43
1926;BME280;964;42.606;23.588;2023-05-14T03:16:22;94987.56;;;27.57;27.76
1926;BME280;964;42.606;23.588;2023-05-14T03:18:48;94984.81;;;27.26;28.06
1926;BME280;964;42.606;23.588;2023-05-14T03:21:17;94977.28;;;28.10;27.18
1926;BME280;964;42.606;23.588;2023-05-14T03:23:44;94971.63;;;27.95;27.39
1926;BME280;964;42.606;23.588;2023-05-14T03:26:11;94968.25;;;28.67;26.64
1926;BME280;964;42.606;23.588;2023-05-14T03:28:38;94961.53;;;28.05;27.03
1926;BME280;964;42.606;23.588;2023-05-14T03:31:06;94957.31;;;28.13;27.33
1926;BME280;964;42.606;23.588;2023-05-14T03:33:33;94957.53;;;27.78;27.44
1926;BME280;964;42.606;23.588;2023-05-14T03:36:00;94954.09;;;26.73;29.02
1926;BME280;964;42.606;23.588;2023-05-14T03:38:29;94955.13;;;26.88;29.44
1926;BME280;964;42.606;23.588;2023-05-14T03:40:56;94955.75;;;26.02;29.72
1926;BME280;964;42.606;23.588;2023-05-14T03:43:23;94952.72;;;26.90;28.94
1926;BME280;964;42.606;23.588;2023-05-14T03:45:50;94964.72;;;26.24;29.71
1926;BME280;964;42.606;23.588;2023-05-14T03:48:17;94961.94;;;26.71;29.29
1926;BME280;964;42.606;23.588;2023-05-14T03:50:44;94968.28;;;26.90;28.79
1926;BME280;964;42.606;23.588;2023-05-14T03:53:11;94969.13;;;26.43;29.55
1926;BME280;964;42.606;23.588;2023-05-14T03:55:39;94964.69;;;27.54;29.04
1926;BME280;964;42.606;23.588;2023-05-14T03:58:06;94964.31;;;27.74;29.06
1926;BME280;964;42.606;23.588;2023-05-14T04:00:38;94966.59;;;27.75;29.22
1926;BME280;964;42.606;23.588;2023-05-14T04:03:05;94971.41;;;28.11;28.86
1926;BME280;964;42.606;23.588;2023-05-14T04:05:32;94972.88;;;27.94;28.64
1926;BME280;964;42.606;23.588;2023-05-14T04:07:59;94965.69;;;28.82;28.41
1926;BME280;964;42.606;23.588;2023-05-14T04:10:26;94970.28;;;28.00;28.75
1926;BME280;964;42.606;23.588;2023-05-14T04:12:54;94975.16;;;27.03;29.72
1926;BME280;964;42.606;23.588;2023-05-14T04:15:21;94974.91;;;27.41;29.27
1926;BME280;964;42.606;23.588;2023-05-14T04:17:48;94974.59;;;28.64;28.27
1926;BME280;964;42.606;23.588;2023-05-14T04:20:15;94984.16;;;27.84;28.26
1926;BME280;964;42.606;23.588;2023-05-14T04:22:42;94990.88;;;28.01;28.64
1926;BME280;964;42.606;23.588;2023-05-14T04:25:10;94997.56;;;28.09;28.13
1926;BME280;964;42.606;23.588;2023-05-14T04:27:36;94992.25;;;27.56;28.38
1926;BME280;964;42.606;23.588;2023-05-14T04:30:06;94999.75;;;27.00;28.82
1926;BME280;964;42.606;23.588;2023-05-14T04:32:33;95005.94;;;24.93;30.76
1926;BME280;964;42.606;23.588;2023-05-14T04:35:01;94989.25;;;27.11;28.32
1926;BME280;964;42.606;23.588;2023-05-14T04:37:28;95000.06;;;27.45;28.33
1926;BME280;964;42.606;23.588;2023-05-14T04:39:55;95011.16;;;27.07;27.65
1926;BME280;964;42.606;23.588;2023-05-14T04:42:22;95009.06;;;26.90;28.27
1926;BME280;964;42.606;23.588;2023-05-14T04:44:49;95004.78;;;27.94;27.35
1926;BME280;964;42.606;23.588;2023-05-14T04:47:18;95016.75;;;26.69;28.28
1926;BME280;964;42.606;23.588;2023-05-14T04:49:45;95014.72;;;27.78;27.05
1926;BME280;964;42.606;23.588;2023-05-14T04:52:12;95007.75;;;27.77;26.81
1926;BME280;964;42.606;23.588;2023-05-14T04:54:39;94997.25;;;28.07;26.47
1926;BME280;964;42.606;23.588;2023-05-14T04:57:06;95008.19;;;27.76;27.23
1926;BME280;964;42.606;23.588;2023-05-14T04:59:32;95008.28;;;28.80;25.82
1926;BME280;964;42.606;23.588;2023-05-14T05:01:59;95025.69;;;27.97;26.97
1926;BME280;964;42.606;23.588;2023-05-14T05:04:28;95030.00;;;27.23;27.25
1926;BME280;964;42.606;23.588;2023-05-14T05:06:55;95026.00;;;28.75;26.39
1926;BME280;964;42.606;23.588;2023-05-14T05:09:21;95027.81;;;28.02;26.90
1926;BME280;964;42.606;23.588;2023-05-14T05:11:48;95036.41;;;27.08;28.59
1926;BME280;964;42.606;23.588;2023-05-14T05:14:15;95045.09;;;26.59;29.19
1926;BME280;964;42.606;23.588;2023-05-14T05:16:42;95046.19;;;26.49;28.95
1926;BME280;964;42.606;23.588;2023-05-14T05:19:09;95053.47;;;26.87;28.96
1926;BME280;964;42.606;23.588;2023-05-14T05:21:37;95029.59;;;27.56;29.66
1926;BME280;964;42.606;23.588;2023-05-14T05:24:05;95045.47;;;27.88;29.14
1926;BME280;964;42.606;23.588;2023-05-14T05:26:32;95061.13;;;27.01;29.96
1926;BME280;964;42.606;23.588;2023-05-14T05:29:01;95067.59;;;27.59;29.84
1926;BME280;964;42.606;23.588;2023-05-14T05:31:28;95069.78;;;29.08;27.93
1926;BME280;964;42.606;23.588;2023-05-14T05:33:55;95084.44;;;28.07;29.60
1926;BME280;964;42.606;23.588;2023-05-14T05:36:22;95091.56;;;28.04;29.58
1926;BME280;964;42.606;23.588;2023-05-14T05:38:50;95080.28;;;29.97;27.83
1926;BME280;964;42.606;23.588;2023-05-14T05:41:17;95086.25;;;29.86;27.86
1926;BME280;964;42.606;23.588;2023-05-14T05:43:44;95082.06;;;30.09;27.82
1926;BME280;964;42.606;23.588;2023-05-14T05:46:11;95089.53;;;30.32;27.49
1926;BME280;964;42.606;23.588;2023-05-14T05:48:37;95098.47;;;30.09;28.18
1926;BME280;964;42.606;23.588;2023-05-14T05:51:04;95102.91;;;28.03;30.54
1926;BME280;964;42.606;23.588;2023-05-14T05:53:31;95086.19;;;29.35;29.60
1926;BME280;964;42.606;23.588;2023-05-14T05:55:59;95089.44;;;29.85;28.97
1926;BME280;964;42.606;23.588;2023-05-14T05:58:26;95100.13;;;29.01;29.76
1926;BME280;964;42.606;23.588;2023-05-14T06:00:53;95091.72;;;28.59;30.03
1926;BME280;964;42.606;23.588;2023-05-14T06:03:22;95103.91;;;28.76;30.56
1926;BME280;964;42.606;23.588;2023-05-14T06:05:48;95100.72;;;29.23;30.14
1926;BME280;964;42.606;23.588;2023-05-14T06:08:16;95095.81;;;28.54;30.86
1926;BME280;964;42.606;23.588;2023-05-14T06:10:43;95099.06;;;28.31;31.05
1926;BME280;964;42.606;23.588;2023-05-14T06:13:12;95096.47;;;27.35;32.66
1926;BME280;964;42.606;23.588;2023-05-14T06:15:38;95087.03;;;28.59;31.33
1926;BME280;964;42.606;23.588;2023-05-14T06:18:05;95076.69;;;28.05;32.16
1926;BME280;964;42.606;23.588;2023-05-14T06:20:32;95081.78;;;28.16;31.85
1926;BME280;964;42.606;23.588;2023-05-14T06:22:59;95092.16;;;27.68;32.76
1926;BME280;964;42.606;23.588;2023-05-14T06:25:26;95093.41;;;27.11;33.20
1926;BME280;964;42.606;23.588;2023-05-14T06:27:53;95079.50;;;28.72;31.18
1926;BME280;964;42.606;23.588;2023-05-14T06:30:22;95089.44;;;26.56;33.63
1926;BME280;964;42.606;23.588;2023-05-14T06:32:48;95085.56;;;26.92;33.13
1926;BME280;964;42.606;23.588;2023-05-14T06:35:16;95081.28;;;27.47;33.20
1926;BME280;964;42.606;23.588;2023-05-14T06:37:43;95073.97;;;27.22;33.90
1926;BME280;964;42.606;23.588;2023-05-14T06:40:10;95069.63;;;27.03;33.70
1926;BME280;964;42.606;23.588;2023-05-14T06:42:39;95082.97;;;26.88;33.60
1926;BME280;964;42.606;23.588;2023-05-14T06:45:07;95086.34;;;28.95;31.19
1926;BME280;964;42.606;23.588;2023-05-14T06:47:35;95086.56;;;28.52;31.61
1926;BME280;964;42.606;23.588;2023-05-14T06:50:02;95091.47;;;29.20;31.11
1926;BME280;964;42.606;23.588;2023-05-14T06:52:29;95090.97;;;29.58;30.27
1926;BME280;964;42.606;23.588;2023-05-14T06:54:56;95091.03;;;28.95;31.31
1926;BME280;964;42.606;23.588;2023-05-14T06:57:23;95104.34;;;28.74;31.38
1926;BME280;964;42.606;23.588;2023-05-14T06:59:50;95086.41;;;29.74;30.14
1926;BME280;964;42.606;23.588;2023-05-14T07:02:17;95072.38;;;29.20;30.78
1926;BME280;964;42.606;23.588;2023-05-14T07:04:45;95064.59;;;28.37;31.97
1926;BME280;964;42.606;23.588;2023-05-14T07:07:12;95061.88;;;27.45;33.20
1926;BME280;964;42.606;23.588;2023-05-14T07:09:41;95053.56;;;28.01;33.03
1926;BME280;964;42.606;23.588;2023-05-14T07:12:08;95051.75;;;28.07;32.63
1926;BME280;964;42.606;23.588;2023-05-14T07:14:35;95038.25;;;27.63;33.56
1926;BME280;964;42.606;23.588;2023-05-14T07:17:02;95057.63;;;26.44;35.40
1926;BME280;964;42.606;23.588;2023-05-14T07:19:29;95046.13;;;27.18;34.57
1926;BME280;964;42.606;23.588;2023-05-14T07:21:57;95054.91;;;27.65;33.86
1926;BME280;964;42.606;23.588;2023-05-14T07:24:24;95053.81;;;28.34;33.12
1926;BME280;964;42.606;23.588;2023-05-14T07:26:51;95052.06;;;28.09;33.01
1926;BME280;964;42.606;23.588;2023-05-14T07:29:18;95069.03;;;29.07;31.96
1926;BME280;964;42.606;23.588;2023-05-14T07:31:45;95100.59;;;28.32;32.41
1926;BME280;964;42.606;23.588;2023-05-14T07:34:12;95121.22;;;27.71;32.87
1926;BME280;964;42.606;23.588;2023-05-14T07:36:39;95118.00;;;28.25;32.10
1926;BME280;964;42.606;23.588;2023-05-14T07:39:07;95098.44;;;28.27;31.78
1926;BME280;964;42.606;23.588;2023-05-14T07:41:34;95100.41;;;27.56;32.68
1926;BME280;964;42.606;23.588;2023-05-14T07:44:01;95097.69;;;27.87;31.72
1926;BME280;964;42.606;23.588;2023-05-14T07:46:28;95090.88;;;27.39;32.39
1926;BME280;964;42.606;23.588;2023-05-14T07:48:54;95103.88;;;25.52;34.77
1926;BME280;964;42.606;23.588;2023-05-14T07:51:21;95107.00;;;26.05;34.72
1926;BME280;964;42.606;23.588;2023-05-14T07:53:48;95092.31;;;26.74;34.14
1926;BME280;964;42.606;23.588;2023-05-14T07:56:16;95102.41;;;26.27;34.74
1926;BME280;964;42.606;23.588;2023-05-14T07:58:44;95101.34;;;26.24;34.70
1926;BME280;964;42.606;23.588;2023-05-14T08:01:11;95105.91;;;25.90;35.10
1926;BME280;964;42.606;23.588;2023-05-14T08:03:38;95109.81;;;26.99;33.70
1926;BME280;964;42.606;23.588;2023-05-14T08:06:05;95122.94;;;26.53;34.26
1926;BME280;964;42.606;23.588;2023-05-14T08:08:32;95125.78;;;26.12;34.75
1926;BME280;964;42.606;23.588;2023-05-14T08:10:59;95133.38;;;26.04;34.72
1926;BME280;964;42.606;23.588;2023-05-14T08:13:27;95129.13;;;26.16;34.78
1926;BME280;964;42.606;23.588;2023-05-14T08:15:54;95115.94;;;27.12;33.71
1926;BME280;964;42.606;23.588;2023-05-14T08:18:21;95109.69;;;25.92;35.02
1926;BME280;964;42.606;23.588;2023-05-14T08:20:48;95110.78;;;25.95;35.38
1926;BME280;964;42.606;23.588;2023-05-14T08:23:15;95099.63;;;25.10;36.73
1926;BME280;964;42.606;23.588;2023-05-14T08:25:42;95083.41;;;26.27;35.02
1926;BME280;964;42.606;23.588;2023-05-14T08:28:09;95080.06;;;26.23;35.16
1926;BME280;964;42.606;23.588;2023-05-14T08:30:37;95080.69;;;26.02;35.18
1926;BME280;964;42.606;23.588;2023-05-14T08:33:04;95078.19;;;25.82;35.98
1926;BME280;964;42.606;23.588;2023-05-14T08:35:31;95089.69;;;25.32;36.48
1926;BME280;964;42.606;23.588;2023-05-14T08:37:58;95082.72;;;25.72;36.06
1926;BME280;964;42.606;23.588;2023-05-14T08:40:25;95086.00;;;26.90;34.92
1926;BME280;964;42.606;23.588;2023-05-14T08:42:53;95085.44;;;26.48;35.39
1926;BME280;964;42.606;23.588;2023-05-14T08:45:28;95081.88;;;27.07;34.99
1926;BME280;964;42.606;23.588;2023-05-14T08:47:58;95089.06;;;26.79;34.57
1926;BME280;964;42.606;23.588;2023-05-14T08:50:27;95072.75;;;27.66;33.61
1926;BME280;964;42.606;23.588;2023-05-14T08:52:55;95054.53;;;27.54;34.16
1926;BME280;964;42.606;23.588;2023-05-14T08:55:22;95077.47;;;27.01;34.86
1926;BME280;964;42.606;23.588;2023-05-14T08:57:50;95071.63;;;26.90;34.53
1926;BME280;964;42.606;23.588;2023-05-14T09:00:17;95060.22;;;26.82;34.78
1926;BME280;964;42.606;23.588;2023-05-14T09:02:45;95050.22;;;28.06;33.75
1926;BME280;964;42.606;23.588;2023-05-14T09:05:16;95057.72;;;27.31;34.37
1926;BME280;964;42.606;23.588;2023-05-14T09:07:44;95071.56;;;26.68;34.47
1926;BME280;964;42.606;23.588;2023-05-14T09:10:11;95054.09;;;27.87;33.58
1926;BME280;964;42.606;23.588;2023-05-14T09:12:39;95057.72;;;27.31;34.43
1926;BME280;964;42.606;23.588;2023-05-14T09:15:07;95058.94;;;26.27;35.83
1926;BME280;964;42.606;23.588;2023-05-14T09:17:34;95050.69;;;26.77;34.85
1926;BME280;964;42.606;23.588;2023-05-14T09:20:01;95059.06;;;26.70;34.93
1926;BME280;964;42.606;23.588;2023-05-14T09:22:30;95046.59;;;26.01;35.97
1926;BME280;964;42.606;23.588;2023-05-14T09:25:02;95044.19;;;25.52;36.21
1926;BME280;964;42.606;23.588;2023-05-14T09:27:29;95049.75;;;25.20;36.69
1926;BME280;964;42.606;23.588;2023-05-14T09:30:04;95056.22;;;26.40;35.73
1926;BME280;964;42.606;23.588;2023-05-14T09:32:39;95062.72;;;26.55;34.81
1926;BME280;964;42.606;23.588;2023-05-14T09:35:09;95066.34;;;27.08;34.65
1926;BME280;964;42.606;23.588;2023-05-14T09:37:40;95068.63;;;26.03;35.93
1926;BME280;964;42.606;23.588;2023-05-14T09:40:08;95062.84;;;26.86;35.20
1926;BME280;964;42.606;23.588;2023-05-14T09:42:35;95047.13;;;26.21;35.74
1926;BME280;964;42.606;23.588;2023-05-14T09:45:03;95052.22;;;25.81;36.49
1926;BME280;964;42.606;23.588;2023-05-14T09:47:30;95052.88;;;25.98;35.78
1926;BME280;964;42.606;23.588;2023-05-14T09:49:57;95049.75;;;27.15;34.54
1926;BME280;964;42.606;23.588;2023-05-14T09:52:23;95049.38;;;26.35;35.14
1926;BME280;964;42.606;23.588;2023-05-14T09:54:52;95024.03;;;27.38;34.66
1926;BME280;964;42.606;23.588;2023-05-14T09:57:19;95025.59;;;24.97;37.71
1926;BME280;964;42.606;23.588;2023-05-14T09:59:46;95017.13;;;26.24;36.02
1926;BME280;964;42.606;23.588;2023-05-14T10:02:17;95022.75;;;26.64;35.32
1926;BME280;964;42.606;23.588;2023-05-14T10:04:47;95022.91;;;25.89;35.86
1926;BME280;964;42.606;23.588;2023-05-14T10:07:19;95030.41;;;25.97;36.31
1926;BME280;964;42.606;23.588;2023-05-14T10:09:47;95033.44;;;25.61;36.77
1926;BME280;964;42.606;23.588;2023-05-14T10:12:19;95020.06;;;25.54;37.01
1926;BME280;964;42.606;23.588;2023-05-14T10:14:49;95016.41;;;25.73;36.61
1926;BME280;964;42.606;23.588;2023-05-14T10:17:19;95030.50;;;25.81;36.54
1926;BME280;964;42.606;23.588;2023-05-14T10:19:51;95012.56;;;26.21;36.31
1926;BME280;964;42.606;23.588;2023-05-14T10:22:22;95009.22;;;26.05;36.33
1926;BME280;964;42.606;23.588;2023-05-14T10:24:49;94992.03;;;26.76;35.49
1926;BME280;964;42.606;23.588;2023-05-14T10:27:19;94986.41;;;25.90;36.08
1926;BME280;964;42.606;23.588;2023-05-14T10:29:50;94992.63;;;26.37;36.01
1926;BME280;964;42.606;23.588;2023-05-14T10:32:19;94987.28;;;25.61;36.85
1926;BME280;964;42.606;23.588;2023-05-14T10:34:47;94973.63;;;25.52;37.24
1926;BME280;964;42.606;23.588;2023-05-14T10:37:15;94954.03;;;27.38;35.04
1926;BME280;964;42.606;23.588;2023-05-14T10:39:43;94969.34;;;25.26;37.27
1926;BME280;964;42.606;23.588;2023-05-14T10:42:11;94989.25;;;25.73;37.28
1926;BME280;964;42.606;23.588;2023-05-14T10:44:46;94978.09;;;27.18;34.75
1926;BME280;964;42.606;23.588;2023-05-14T10:47:14;94986.06;;;26.47;36.03
1926;BME280;964;42.606;23.588;2023-05-14T10:49:43;94998.13;;;26.46;35.65
1926;BME280;964;42.606;23.588;2023-05-14T10:52:15;94996.47;;;26.61;35.08
1926;BME280;964;42.606;23.588;2023-05-14T10:54:48;94994.78;;;25.70;36.74
1926;BME280;964;42.606;23.588;2023-05-14T10:57:17;94989.00;;;26.74;35.71
1926;BME280;964;42.606;23.588;2023-05-14T10:59:46;95005.72;;;27.07;34.82
1926;BME280;964;42.606;23.588;2023-05-14T11:02:23;95009.88;;;25.71;35.66
1926;BME280;964;42.606;23.588;2023-05-14T11:04:58;95011.69;;;26.24;35.95
1926;BME280;964;42.606;23.588;2023-05-14T11:07:30;94997.13;;;27.09;35.15
1926;BME280;964;42.606;23.588;2023-05-14T11:10:02;94997.97;;;26.28;35.98
1926;BME280;964;42.606;23.588;2023-05-14T11:12:30;94980.19;;;26.49;35.75
1926;BME280;964;42.606;23.588;2023-05-14T11:15:01;94979.41;;;26.14;36.34
1926;BME280;964;42.606;23.588;2023-05-14T11:17:29;94976.34;;;26.37;35.87
1926;BME280;964;42.606;23.588;2023-05-14T11:19:57;94974.69;;;27.26;35.19
1926;BME280;964;42.606;23.588;2023-05-14T11:22:24;94979.25;;;26.64;35.42
1926;BME280;964;42.606;23.588;2023-05-14T11:24:51;94984.25;;;25.84;36.54
1926;BME280;964;42.606;23.588;2023-05-14T11:27:18;94994.47;;;25.55;37.21
1926;BME280;964;42.606;23.588;2023-05-14T11:29:47;94981.00;;;26.37;36.15
1926;BME280;964;42.606;23.588;2023-05-14T11:32:17;94970.53;;;27.44;34.78
1926;BME280;964;42.606;23.588;2023-05-14T11:34:44;94988.16;;;25.83;36.27
1926;BME280;964;42.606;23.588;2023-05-14T11:37:13;94992.97;;;24.71;37.99
1926;BME280;964;42.606;23.588;2023-05-14T11:39:45;94972.88;;;27.54;34.37
1926;BME280;964;42.606;23.588;2023-05-14T11:42:13;94977.69;;;25.95;36.68
1926;BME280;964;42.606;23.588;2023-05-14T11:44:41;94964.81;;;25.86;36.82
1926;BME280;964;42.606;23.588;2023-05-14T11:47:10;94985.50;;;26.18;36.57
1926;BME280;964;42.606;23.588;2023-05-14T11:49:38;94981.91;;;26.55;36.23
1926;BME280;964;42.606;23.588;2023-05-14T11:52:07;94971.88;;;27.39;34.66
1926;BME280;964;42.606;23.588;2023-05-14T11:54:36;94982.63;;;26.34;36.06
1926;BME280;964;42.606;23.588;2023-05-14T11:57:08;94975.88;;;25.41;37.16
1926;BME280;964;42.606;23.588;2023-05-14T11:59:35;94966.84;;;26.63;35.68
1926;BME280;964;42.606;23.588;2023-05-14T12:02:02;94961.41;;;26.63;35.56
1926;BME280;964;42.606;23.588;2023-05-14T12:04:30;94964.63;;;26.15;36.29
1926;BME280;964;42.606;23.588;2023-05-14T12:06:59;94974.03;;;25.89;36.55
1926;BME280;964;42.606;23.588;2023-05-14T12:09:35;94966.19;;;25.91;37.25
1926;BME280;964;42.606;23.588;2023-05-14T12:12:07;94946.94;;;26.10;37.00
1926;BME280;964;42.606;23.588;2023-05-14T12:14:37;94949.47;;;26.05;36.95
1926;BME280;964;42.606;23.588;2023-05-14T12:17:10;94947.16;;;26.03;36.84
1926;BME280;964;42.606;23.588;2023-05-14T12:19:39;94922.19;;;28.51;33.68
1926;BME280;964;42.606;23.588;2023-05-14T12:22:08;94924.94;;;26.30;36.13
1926;BME280;964;42.606;23.588;2023-05-14T12:24:35;94931.59;;;26.72;36.24
1926;BME280;964;42.606;23.588;2023-05-14T12:27:04;94910.28;;;27.63;35.49
1926;BME280;964;42.606;23.588;2023-05-14T12:29:34;94917.66;;;26.27;35.72
1926;BME280;964;42.606;23.588;2023-05-14T12:32:02;94900.69;;;27.10;35.53
1926;BME280;964;42.606;23.588;2023-05-14T12:34:33;94904.94;;;28.18;34.33
1926;BME280;964;42.606;23.588;2023-05-14T12:37:00;94909.78;;;27.16;35.36
1926;BME280;964;42.606;23.588;2023-05-14T12:39:31;94912.50;;;27.16;35.29
1926;BME280;964;42.606;23.588;2023-05-14T12:41:58;94903.66;;;26.28;36.43
1926;BME280;964;42.606;23.588;2023-05-14T12:44:25;94895.84;;;27.05;35.19
1926;BME280;964;42.606;23.588;2023-05-14T12:46:52;94903.22;;;27.44;34.88
1926;BME280;964;42.606;23.588;2023-05-14T12:49:19;94903.22;;;27.35;34.83
1926;BME280;964;42.606;23.588;2023-05-14T12:51:46;94895.88;;;27.14;35.11
1926;BME280;964;42.606;23.588;2023-05-14T12:54:13;94882.00;;;26.68;35.63
1926;BME280;964;42.606;23.588;2023-05-14T12:56:41;94883.34;;;26.20;36.16
1926;BME280;964;42.606;23.588;2023-05-14T12:59:08;94884.97;;;25.83;37.20
1926;BME280;964;42.606;23.588;2023-05-14T13:01:35;94865.78;;;26.56;35.97
1926;BME280;964;42.606;23.588;2023-05-14T13:04:03;94855.63;;;26.47;36.28
1926;BME280;964;42.606;23.588;2023-05-14T13:06:31;94855.38;;;27.16;35.24
1926;BME280;964;42.606;23.588;2023-05-14T13:08:58;94871.13;;;26.90;35.59
1926;BME280;964;42.606;23.588;2023-05-14T13:11:26;94861.75;;;27.89;34.39
1926;BME280;964;42.606;23.588;2023-05-14T13:13:57;94869.56;;;27.51;35.07
1926;BME280;964;42.606;23.588;2023-05-14T13:16:24;94864.44;;;27.22;34.96
1926;BME280;964;42.606;23.588;2023-05-14T13:18:51;94876.00;;;27.44;35.16
1926;BME280;964;42.606;23.588;2023-05-14T13:21:18;94871.28;;;26.43;36.23
1926;BME280;964;42.606;23.588;2023-05-14T13:23:45;94861.44;;;27.20;34.94
1926;BME280;964;42.606;23.588;2023-05-14T13:26:12;94862.81;;;27.24;35.34